Riacho de Santana, Brazil
Current Conditions -  °F | °C
As of 5:00 PM on Sunday 23 Nov 2014 (Local Time) from SBQV Reporting Station
Scattered Clouds Scattered Clouds  
Wind Chill: 77°   Ceiling: Unl
Heat Index: 78°   Visibility: 6mi
Dew Point: 72°   Wind: 10mph
Humidity: 83%   Direction: 120°ESE
Pressure: 30"   Gusts: NA
Location:  13.61°S, 42.94°W
Report Text: SBQV 232000Z 12009KT 9999 SCT020 25/22 Q1016
Loading
Personal Weather Stations






























Interactive Weather Map New forecast layout! Learn more

10-Day Weather Forecast

Advertisements
Track Severe Weather on mobile